sensor_id;sensor_type;location;lat;lon;timestamp;P1;durP1;ratioP1;P2;durP2;ratioP2
59872;SDS011;50750;51.636;4.948;2023-05-19T00:01:10;4.50;;;2.70;;
59872;SDS011;50750;51.636;4.948;2023-05-19T00:03:48;3.50;;;2.30;;
59872;SDS011;50750;51.636;4.948;2023-05-19T00:06:21;3.40;;;2.40;;
59872;SDS011;50750;51.636;4.948;2023-05-19T00:11:28;4.00;;;2.60;;
59872;SDS011;50750;51.636;4.948;2023-05-19T00:13:56;4.30;;;2.40;;
59872;SDS011;50750;51.636;4.948;2023-05-19T00:16:25;4.20;;;2.30;;
59872;SDS011;50750;51.636;4.948;2023-05-19T00:18:53;5.40;;;2.70;;
59872;SDS011;50750;51.636;4.948;2023-05-19T00:21:19;3.10;;;2.20;;
59872;SDS011;50750;51.636;4.948;2023-05-19T00:23:46;3.90;;;2.40;;
59872;SDS011;50750;51.636;4.948;2023-05-19T00:26:12;3.40;;;2.20;;
59872;SDS011;50750;51.636;4.948;2023-05-19T00:28:39;4.10;;;2.40;;
59872;SDS011;50750;51.636;4.948;2023-05-19T00:31:05;4.30;;;2.30;;
59872;SDS011;50750;51.636;4.948;2023-05-19T00:33:32;4.20;;;2.30;;
59872;SDS011;50750;51.636;4.948;2023-05-19T00:36:02;4.90;;;2.60;;
59872;SDS011;50750;51.636;4.948;2023-05-19T00:38:29;3.50;;;2.30;;
59872;SDS011;50750;51.636;4.948;2023-05-19T00:40:57;4.60;;;2.20;;
59872;SDS011;50750;51.636;4.948;2023-05-19T00:43:25;3.70;;;2.40;;
59872;SDS011;50750;51.636;4.948;2023-05-19T00:45:52;3.40;;;2.30;;
59872;SDS011;50750;51.636;4.948;2023-05-19T00:48:18;4.10;;;2.40;;
59872;SDS011;50750;51.636;4.948;2023-05-19T00:50:46;3.40;;;2.30;;
59872;SDS011;50750;51.636;4.948;2023-05-19T00:53:13;4.50;;;2.20;;
59872;SDS011;50750;51.636;4.948;2023-05-19T00:55:40;3.80;;;2.50;;
59872;SDS011;50750;51.636;4.948;2023-05-19T00:58:08;4.70;;;2.60;;
59872;SDS011;50750;51.636;4.948;2023-05-19T01:00:37;5.20;;;2.20;;
59872;SDS011;50750;51.636;4.948;2023-05-19T01:03:05;4.40;;;2.20;;
59872;SDS011;50750;51.636;4.948;2023-05-19T01:05:39;3.30;;;2.20;;
59872;SDS011;50750;51.636;4.948;2023-05-19T01:08:07;4.60;;;2.40;;
59872;SDS011;50750;51.636;4.948;2023-05-19T01:10:34;3.70;;;2.50;;
59872;SDS011;50750;51.636;4.948;2023-05-19T01:13:01;4.40;;;2.60;;
59872;SDS011;50750;51.636;4.948;2023-05-19T01:15:30;4.00;;;2.50;;
59872;SDS011;50750;51.636;4.948;2023-05-19T01:18:06;3.20;;;2.00;;
59872;SDS011;50750;51.636;4.948;2023-05-19T01:23:53;3.60;;;2.10;;
59872;SDS011;50750;51.636;4.948;2023-05-19T01:29:40;5.30;;;2.30;;
59872;SDS011;50750;51.636;4.948;2023-05-19T01:32:23;2.90;;;2.00;;
59872;SDS011;50750;51.636;4.948;2023-05-19T01:34:50;4.10;;;2.20;;
59872;SDS011;50750;51.636;4.948;2023-05-19T01:37:17;3.80;;;2.10;;
59872;SDS011;50750;51.636;4.948;2023-05-19T01:39:46;4.20;;;2.30;;
59872;SDS011;50750;51.636;4.948;2023-05-19T01:42:13;3.60;;;2.00;;
59872;SDS011;50750;51.636;4.948;2023-05-19T01:44:42;4.80;;;2.30;;
59872;SDS011;50750;51.636;4.948;2023-05-19T01:47:09;4.30;;;2.30;;
59872;SDS011;50750;51.636;4.948;2023-05-19T01:49:36;3.70;;;2.20;;
59872;SDS011;50750;51.636;4.948;2023-05-19T01:52:03;3.90;;;2.20;;
59872;SDS011;50750;51.636;4.948;2023-05-19T01:54:29;3.60;;;2.20;;
59872;SDS011;50750;51.636;4.948;2023-05-19T01:57:04;4.70;;;2.50;;
59872;SDS011;50750;51.636;4.948;2023-05-19T02:02:27;4.40;;;2.20;;
59872;SDS011;50750;51.636;4.948;2023-05-19T02:05:12;3.90;;;2.20;;
59872;SDS011;50750;51.636;4.948;2023-05-19T02:08:00;3.30;;;2.10;;
59872;SDS011;50750;51.636;4.948;2023-05-19T02:10:36;3.60;;;2.10;;
59872;SDS011;50750;51.636;4.948;2023-05-19T02:13:09;3.50;;;2.20;;
59872;SDS011;50750;51.636;4.948;2023-05-19T02:15:41;3.20;;;2.10;;
59872;SDS011;50750;51.636;4.948;2023-05-19T02:18:10;4.20;;;2.00;;
59872;SDS011;50750;51.636;4.948;2023-05-19T02:20:38;4.10;;;2.40;;
59872;SDS011;50750;51.636;4.948;2023-05-19T02:23:05;4.90;;;2.30;;
59872;SDS011;50750;51.636;4.948;2023-05-19T02:25:32;3.90;;;2.00;;
59872;SDS011;50750;51.636;4.948;2023-05-19T02:27:59;4.10;;;2.10;;
59872;SDS011;50750;51.636;4.948;2023-05-19T02:30:25;3.80;;;2.00;;
59872;SDS011;50750;51.636;4.948;2023-05-19T02:32:52;3.40;;;2.30;;
59872;SDS011;50750;51.636;4.948;2023-05-19T02:35:19;3.90;;;1.90;;
59872;SDS011;50750;51.636;4.948;2023-05-19T02:37:46;3.30;;;2.10;;
59872;SDS011;50750;51.636;4.948;2023-05-19T02:40:12;4.50;;;2.20;;
59872;SDS011;50750;51.636;4.948;2023-05-19T02:42:39;4.30;;;2.00;;
59872;SDS011;50750;51.636;4.948;2023-05-19T02:45:06;3.40;;;2.00;;
59872;SDS011;50750;51.636;4.948;2023-05-19T02:47:33;5.00;;;2.00;;
59872;SDS011;50750;51.636;4.948;2023-05-19T02:49:59;3.90;;;2.20;;
59872;SDS011;50750;51.636;4.948;2023-05-19T02:52:26;3.10;;;1.80;;
59872;SDS011;50750;51.636;4.948;2023-05-19T02:54:52;3.80;;;1.80;;
59872;SDS011;50750;51.636;4.948;2023-05-19T02:57:19;3.80;;;2.10;;
59872;SDS011;50750;51.636;4.948;2023-05-19T02:59:45;4.50;;;2.10;;
59872;SDS011;50750;51.636;4.948;2023-05-19T03:02:12;4.20;;;2.10;;
59872;SDS011;50750;51.636;4.948;2023-05-19T03:04:38;3.80;;;1.90;;
59872;SDS011;50750;51.636;4.948;2023-05-19T03:07:07;3.90;;;2.20;;
59872;SDS011;50750;51.636;4.948;2023-05-19T03:09:38;3.00;;;1.90;;
59872;SDS011;50750;51.636;4.948;2023-05-19T03:12:05;3.60;;;2.00;;
59872;SDS011;50750;51.636;4.948;2023-05-19T03:14:33;3.10;;;2.00;;
59872;SDS011;50750;51.636;4.948;2023-05-19T03:17:02;3.70;;;2.20;;
59872;SDS011;50750;51.636;4.948;2023-05-19T03:19:29;3.70;;;2.10;;
59872;SDS011;50750;51.636;4.948;2023-05-19T03:21:57;4.20;;;1.90;;
59872;SDS011;50750;51.636;4.948;2023-05-19T03:24:24;5.60;;;2.40;;
59872;SDS011;50750;51.636;4.948;2023-05-19T03:26:50;3.10;;;2.00;;
59872;SDS011;50750;51.636;4.948;2023-05-19T03:29:17;3.80;;;2.00;;
59872;SDS011;50750;51.636;4.948;2023-05-19T03:31:43;4.60;;;1.90;;
59872;SDS011;50750;51.636;4.948;2023-05-19T03:34:10;3.80;;;1.90;;
59872;SDS011;50750;51.636;4.948;2023-05-19T03:36:36;3.20;;;1.90;;
59872;SDS011;50750;51.636;4.948;2023-05-19T03:39:04;3.70;;;1.90;;
59872;SDS011;50750;51.636;4.948;2023-05-19T03:41:31;3.50;;;1.90;;
59872;SDS011;50750;51.636;4.948;2023-05-19T03:43:58;4.00;;;1.90;;
59872;SDS011;50750;51.636;4.948;2023-05-19T03:46:24;3.90;;;2.10;;
59872;SDS011;50750;51.636;4.948;2023-05-19T03:48:52;3.40;;;2.00;;
59872;SDS011;50750;51.636;4.948;2023-05-19T03:51:19;4.70;;;2.20;;
59872;SDS011;50750;51.636;4.948;2023-05-19T03:53:48;4.70;;;2.00;;
59872;SDS011;50750;51.636;4.948;2023-05-19T03:56:14;4.20;;;2.10;;
59872;SDS011;50750;51.636;4.948;2023-05-19T03:58:43;4.00;;;2.00;;
59872;SDS011;50750;51.636;4.948;2023-05-19T04:01:10;4.20;;;2.00;;
59872;SDS011;50750;51.636;4.948;2023-05-19T04:03:39;3.50;;;2.10;;
59872;SDS011;50750;51.636;4.948;2023-05-19T04:06:06;4.00;;;2.00;;
59872;SDS011;50750;51.636;4.948;2023-05-19T04:08:33;3.20;;;1.80;;
59872;SDS011;50750;51.636;4.948;2023-05-19T04:11:00;3.70;;;2.10;;
59872;SDS011;50750;51.636;4.948;2023-05-19T04:13:27;3.60;;;1.90;;
59872;SDS011;50750;51.636;4.948;2023-05-19T04:15:53;3.00;;;1.70;;
59872;SDS011;50750;51.636;4.948;2023-05-19T04:18:20;5.60;;;1.90;;
59872;SDS011;50750;51.636;4.948;2023-05-19T04:20:46;4.00;;;1.80;;
59872;SDS011;50750;51.636;4.948;2023-05-19T04:23:13;4.00;;;2.00;;
59872;SDS011;50750;51.636;4.948;2023-05-19T04:25:39;3.60;;;2.00;;
59872;SDS011;50750;51.636;4.948;2023-05-19T04:28:07;3.10;;;1.90;;
59872;SDS011;50750;51.636;4.948;2023-05-19T04:30:33;3.20;;;1.90;;
59872;SDS011;50750;51.636;4.948;2023-05-19T04:33:00;3.90;;;2.00;;
59872;SDS011;50750;51.636;4.948;2023-05-19T04:35:28;3.10;;;1.90;;
59872;SDS011;50750;51.636;4.948;2023-05-19T04:37:55;4.00;;;2.00;;
59872;SDS011;50750;51.636;4.948;2023-05-19T04:40:24;4.40;;;1.90;;
59872;SDS011;50750;51.636;4.948;2023-05-19T04:42:51;3.20;;;2.00;;
59872;SDS011;50750;51.636;4.948;2023-05-19T04:45:17;4.50;;;1.90;;
59872;SDS011;50750;51.636;4.948;2023-05-19T04:47:44;3.10;;;2.00;;
59872;SDS011;50750;51.636;4.948;2023-05-19T04:50:13;3.10;;;1.80;;
59872;SDS011;50750;51.636;4.948;2023-05-19T04:52:41;3.30;;;1.90;;
59872;SDS011;50750;51.636;4.948;2023-05-19T04:55:10;3.40;;;2.00;;
59872;SDS011;50750;51.636;4.948;2023-05-19T04:57:38;2.90;;;1.80;;
59872;SDS011;50750;51.636;4.948;2023-05-19T05:00:04;4.20;;;2.40;;
59872;SDS011;50750;51.636;4.948;2023-05-19T05:02:34;3.40;;;1.70;;
59872;SDS011;50750;51.636;4.948;2023-05-19T05:05:01;2.90;;;1.80;;
59872;SDS011;50750;51.636;4.948;2023-05-19T05:07:27;3.60;;;1.80;;
59872;SDS011;50750;51.636;4.948;2023-05-19T05:09:54;3.70;;;1.80;;
59872;SDS011;50750;51.636;4.948;2023-05-19T05:12:20;4.40;;;1.90;;
59872;SDS011;50750;51.636;4.948;2023-05-19T05:14:47;3.50;;;1.80;;
59872;SDS011;50750;51.636;4.948;2023-05-19T05:17:14;3.00;;;2.00;;
59872;SDS011;50750;51.636;4.948;2023-05-19T05:19:41;3.10;;;1.70;;
59872;SDS011;50750;51.636;4.948;2023-05-19T05:22:08;3.60;;;1.90;;
59872;SDS011;50750;51.636;4.948;2023-05-19T05:24:35;3.10;;;1.90;;
59872;SDS011;50750;51.636;4.948;2023-05-19T05:27:02;3.30;;;1.80;;
59872;SDS011;50750;51.636;4.948;2023-05-19T05:29:29;3.70;;;1.70;;
59872;SDS011;50750;51.636;4.948;2023-05-19T05:31:55;3.50;;;1.90;;
59872;SDS011;50750;51.636;4.948;2023-05-19T05:34:22;3.50;;;2.00;;
59872;SDS011;50750;51.636;4.948;2023-05-19T05:36:48;4.20;;;1.80;;
59872;SDS011;50750;51.636;4.948;2023-05-19T05:39:15;3.00;;;1.80;;
59872;SDS011;50750;51.636;4.948;2023-05-19T05:41:42;3.00;;;1.70;;
59872;SDS011;50750;51.636;4.948;2023-05-19T05:44:08;4.10;;;1.90;;
59872;SDS011;50750;51.636;4.948;2023-05-19T05:46:34;3.90;;;2.00;;
59872;SDS011;50750;51.636;4.948;2023-05-19T05:49:01;3.10;;;1.70;;
59872;SDS011;50750;51.636;4.948;2023-05-19T05:51:28;4.00;;;1.90;;
59872;SDS011;50750;51.636;4.948;2023-05-19T05:53:56;3.80;;;1.90;;
59872;SDS011;50750;51.636;4.948;2023-05-19T05:56:25;3.30;;;1.70;;
59872;SDS011;50750;51.636;4.948;2023-05-19T05:58:52;3.00;;;1.80;;
59872;SDS011;50750;51.636;4.948;2023-05-19T06:01:18;3.60;;;2.10;;
59872;SDS011;50750;51.636;4.948;2023-05-19T06:03:47;3.20;;;1.90;;
59872;SDS011;50750;51.636;4.948;2023-05-19T06:06:13;3.00;;;1.80;;
59872;SDS011;50750;51.636;4.948;2023-05-19T06:08:40;2.70;;;1.80;;
59872;SDS011;50750;51.636;4.948;2023-05-19T06:11:06;3.80;;;1.90;;
59872;SDS011;50750;51.636;4.948;2023-05-19T06:13:36;3.20;;;1.90;;
59872;SDS011;50750;51.636;4.948;2023-05-19T06:16:04;4.30;;;1.90;;
59872;SDS011;50750;51.636;4.948;2023-05-19T06:18:31;3.20;;;1.90;;
59872;SDS011;50750;51.636;4.948;2023-05-19T06:20:59;3.70;;;1.90;;
59872;SDS011;50750;51.636;4.948;2023-05-19T06:23:26;3.20;;;1.80;;
59872;SDS011;50750;51.636;4.948;2023-05-19T06:25:54;3.20;;;1.90;;
59872;SDS011;50750;51.636;4.948;2023-05-19T06:28:21;3.80;;;2.00;;
59872;SDS011;50750;51.636;4.948;2023-05-19T06:30:48;4.20;;;1.80;;
59872;SDS011;50750;51.636;4.948;2023-05-19T06:33:14;3.00;;;1.70;;
59872;SDS011;50750;51.636;4.948;2023-05-19T06:35:41;3.50;;;2.00;;
59872;SDS011;50750;51.636;4.948;2023-05-19T06:38:10;4.00;;;1.80;;
59872;SDS011;50750;51.636;4.948;2023-05-19T06:40:37;3.30;;;1.80;;
59872;SDS011;50750;51.636;4.948;2023-05-19T06:43:03;2.80;;;1.80;;
59872;SDS011;50750;51.636;4.948;2023-05-19T06:45:30;4.00;;;2.00;;
59872;SDS011;50750;51.636;4.948;2023-05-19T06:47:56;5.00;;;2.00;;
59872;SDS011;50750;51.636;4.948;2023-05-19T06:50:23;2.90;;;1.80;;
59872;SDS011;50750;51.636;4.948;2023-05-19T06:52:50;3.50;;;1.60;;
59872;SDS011;50750;51.636;4.948;2023-05-19T06:55:17;3.20;;;1.80;;
59872;SDS011;50750;51.636;4.948;2023-05-19T06:57:44;2.40;;;1.50;;
59872;SDS011;50750;51.636;4.948;2023-05-19T07:00:11;3.40;;;1.80;;
59872;SDS011;50750;51.636;4.948;2023-05-19T07:02:40;3.00;;;1.70;;
59872;SDS011;50750;51.636;4.948;2023-05-19T07:05:07;2.90;;;1.60;;
59872;SDS011;50750;51.636;4.948;2023-05-19T07:07:34;3.00;;;1.90;;
59872;SDS011;50750;51.636;4.948;2023-05-19T07:10:00;4.20;;;2.00;;
59872;SDS011;50750;51.636;4.948;2023-05-19T07:12:27;2.90;;;1.60;;
59872;SDS011;50750;51.636;4.948;2023-05-19T07:14:53;2.70;;;1.60;;
59872;SDS011;50750;51.636;4.948;2023-05-19T07:17:20;3.40;;;1.70;;
59872;SDS011;50750;51.636;4.948;2023-05-19T07:19:46;3.00;;;1.60;;
59872;SDS011;50750;51.636;4.948;2023-05-19T07:22:13;3.50;;;1.70;;
59872;SDS011;50750;51.636;4.948;2023-05-19T07:24:40;2.80;;;1.90;;
59872;SDS011;50750;51.636;4.948;2023-05-19T07:27:06;3.10;;;1.60;;
59872;SDS011;50750;51.636;4.948;2023-05-19T07:29:33;2.80;;;1.70;;
59872;SDS011;50750;51.636;4.948;2023-05-19T07:31:59;3.60;;;1.60;;
59872;SDS011;50750;51.636;4.948;2023-05-19T07:34:26;3.20;;;1.70;;
59872;SDS011;50750;51.636;4.948;2023-05-19T07:36:52;3.70;;;1.90;;
59872;SDS011;50750;51.636;4.948;2023-05-19T07:39:19;2.90;;;1.60;;
59872;SDS011;50750;51.636;4.948;2023-05-19T07:41:46;3.90;;;1.80;;
59872;SDS011;50750;51.636;4.948;2023-05-19T07:44:17;3.60;;;1.60;;
59872;SDS011;50750;51.636;4.948;2023-05-19T07:46:44;3.20;;;1.70;;
59872;SDS011;50750;51.636;4.948;2023-05-19T07:49:11;3.30;;;1.80;;
59872;SDS011;50750;51.636;4.948;2023-05-19T07:51:37;2.70;;;1.70;;
59872;SDS011;50750;51.636;4.948;2023-05-19T07:54:04;3.80;;;1.70;;
59872;SDS011;50750;51.636;4.948;2023-05-19T07:56:30;3.40;;;1.70;;
59872;SDS011;50750;51.636;4.948;2023-05-19T07:58:56;2.50;;;1.50;;
59872;SDS011;50750;51.636;4.948;2023-05-19T08:01:23;3.40;;;1.80;;
59872;SDS011;50750;51.636;4.948;2023-05-19T08:03:49;3.60;;;1.80;;
59872;SDS011;50750;51.636;4.948;2023-05-19T08:06:16;2.80;;;1.70;;
59872;SDS011;50750;51.636;4.948;2023-05-19T08:08:43;3.00;;;1.60;;
59872;SDS011;50750;51.636;4.948;2023-05-19T08:11:12;3.40;;;2.00;;
59872;SDS011;50750;51.636;4.948;2023-05-19T08:13:38;4.20;;;1.70;;
59872;SDS011;50750;51.636;4.948;2023-05-19T08:16:05;3.60;;;1.90;;
59872;SDS011;50750;51.636;4.948;2023-05-19T08:18:32;3.40;;;1.90;;
59872;SDS011;50750;51.636;4.948;2023-05-19T08:20:58;2.70;;;1.70;;
59872;SDS011;50750;51.636;4.948;2023-05-19T08:23:25;3.30;;;1.70;;
59872;SDS011;50750;51.636;4.948;2023-05-19T08:25:52;2.90;;;1.70;;
59872;SDS011;50750;51.636;4.948;2023-05-19T08:28:18;3.00;;;1.80;;
59872;SDS011;50750;51.636;4.948;2023-05-19T08:30:45;3.30;;;1.60;;
59872;SDS011;50750;51.636;4.948;2023-05-19T08:33:11;2.90;;;1.70;;
59872;SDS011;50750;51.636;4.948;2023-05-19T08:35:38;4.20;;;1.90;;
59872;SDS011;50750;51.636;4.948;2023-05-19T08:38:04;2.60;;;1.70;;
59872;SDS011;50750;51.636;4.948;2023-05-19T08:40:31;3.10;;;1.80;;
59872;SDS011;50750;51.636;4.948;2023-05-19T08:43:00;3.70;;;1.90;;
59872;SDS011;50750;51.636;4.948;2023-05-19T08:45:26;3.10;;;1.90;;
59872;SDS011;50750;51.636;4.948;2023-05-19T08:47:53;3.40;;;1.70;;
59872;SDS011;50750;51.636;4.948;2023-05-19T08:50:20;3.30;;;1.80;;
59872;SDS011;50750;51.636;4.948;2023-05-19T08:52:51;3.20;;;1.80;;
59872;SDS011;50750;51.636;4.948;2023-05-19T08:55:38;3.80;;;1.80;;
59872;SDS011;50750;51.636;4.948;2023-05-19T08:58:11;2.60;;;1.60;;
59872;SDS011;50750;51.636;4.948;2023-05-19T09:00:41;3.60;;;2.20;;
59872;SDS011;50750;51.636;4.948;2023-05-19T09:03:08;3.40;;;1.80;;
59872;SDS011;50750;51.636;4.948;2023-05-19T09:05:35;3.20;;;1.60;;
59872;SDS011;50750;51.636;4.948;2023-05-19T09:08:03;3.60;;;1.80;;
59872;SDS011;50750;51.636;4.948;2023-05-19T09:10:30;3.90;;;1.80;;
59872;SDS011;50750;51.636;4.948;2023-05-19T09:12:56;4.00;;;1.90;;
59872;SDS011;50750;51.636;4.948;2023-05-19T09:15:25;4.10;;;1.80;;
59872;SDS011;50750;51.636;4.948;2023-05-19T09:18:04;3.50;;;2.00;;
59872;SDS011;50750;51.636;4.948;2023-05-19T09:20:41;3.40;;;1.90;;
59872;SDS011;50750;51.636;4.948;2023-05-19T09:23:12;3.60;;;2.10;;
59872;SDS011;50750;51.636;4.948;2023-05-19T09:25:47;3.90;;;2.10;;
59872;SDS011;50750;51.636;4.948;2023-05-19T09:28:24;3.70;;;1.80;;
59872;SDS011;50750;51.636;4.948;2023-05-19T09:30:58;3.40;;;2.00;;
59872;SDS011;50750;51.636;4.948;2023-05-19T09:33:25;3.20;;;2.10;;
59872;SDS011;50750;51.636;4.948;2023-05-19T09:35:53;4.50;;;1.70;;
59872;SDS011;50750;51.636;4.948;2023-05-19T09:38:24;3.80;;;1.70;;
59872;SDS011;50750;51.636;4.948;2023-05-19T09:40:55;2.90;;;1.70;;
59872;SDS011;50750;51.636;4.948;2023-05-19T09:43:26;4.20;;;1.90;;
59872;SDS011;50750;51.636;4.948;2023-05-19T09:45:53;3.10;;;1.70;;
59872;SDS011;50750;51.636;4.948;2023-05-19T09:48:25;3.30;;;1.80;;
59872;SDS011;50750;51.636;4.948;2023-05-19T09:50:53;3.70;;;1.80;;
59872;SDS011;50750;51.636;4.948;2023-05-19T09:53:20;5.90;;;2.00;;
59872;SDS011;50750;51.636;4.948;2023-05-19T09:55:47;3.80;;;2.10;;
59872;SDS011;50750;51.636;4.948;2023-05-19T09:58:15;3.40;;;2.20;;
59872;SDS011;50750;51.636;4.948;2023-05-19T10:00:44;3.70;;;1.90;;
59872;SDS011;50750;51.636;4.948;2023-05-19T10:03:12;3.00;;;1.60;;
59872;SDS011;50750;51.636;4.948;2023-05-19T10:05:41;3.60;;;1.80;;
59872;SDS011;50750;51.636;4.948;2023-05-19T10:08:08;3.30;;;1.80;;
59872;SDS011;50750;51.636;4.948;2023-05-19T10:10:36;4.30;;;2.20;;
59872;SDS011;50750;51.636;4.948;2023-05-19T10:13:04;3.60;;;1.80;;
59872;SDS011;50750;51.636;4.948;2023-05-19T10:15:31;5.20;;;1.70;;
59872;SDS011;50750;51.636;4.948;2023-05-19T10:17:58;3.50;;;1.80;;
59872;SDS011;50750;51.636;4.948;2023-05-19T10:20:26;4.10;;;1.80;;
59872;SDS011;50750;51.636;4.948;2023-05-19T10:22:53;4.20;;;1.80;;
59872;SDS011;50750;51.636;4.948;2023-05-19T10:25:20;5.40;;;2.10;;
59872;SDS011;50750;51.636;4.948;2023-05-19T10:27:52;4.30;;;1.90;;
59872;SDS011;50750;51.636;4.948;2023-05-19T10:30:32;4.70;;;1.80;;
59872;SDS011;50750;51.636;4.948;2023-05-19T10:33:03;4.40;;;2.10;;
59872;SDS011;50750;51.636;4.948;2023-05-19T10:35:40;4.00;;;1.90;;
59872;SDS011;50750;51.636;4.948;2023-05-19T10:41:01;5.90;;;2.40;;
59872;SDS011;50750;51.636;4.948;2023-05-19T10:46:32;6.40;;;2.50;;
59872;SDS011;50750;51.636;4.948;2023-05-19T10:48:59;6.10;;;1.90;;
59872;SDS011;50750;51.636;4.948;2023-05-19T10:51:32;5.90;;;2.00;;
59872;SDS011;50750;51.636;4.948;2023-05-19T10:54:01;3.80;;;1.70;;
59872;SDS011;50750;51.636;4.948;2023-05-19T10:56:29;4.90;;;1.90;;
59872;SDS011;50750;51.636;4.948;2023-05-19T10:59:00;3.40;;;1.90;;
59872;SDS011;50750;51.636;4.948;2023-05-19T11:01:33;7.90;;;2.10;;
59872;SDS011;50750;51.636;4.948;2023-05-19T11:04:04;4.20;;;1.90;;
59872;SDS011;50750;51.636;4.948;2023-05-19T11:06:32;5.00;;;1.90;;
59872;SDS011;50750;51.636;4.948;2023-05-19T11:09:13;3.60;;;1.90;;
59872;SDS011;50750;51.636;4.948;2023-05-19T11:14:20;3.40;;;1.80;;
59872;SDS011;50750;51.636;4.948;2023-05-19T11:16:49;3.80;;;1.80;;
59872;SDS011;50750;51.636;4.948;2023-05-19T11:19:26;3.00;;;1.50;;
59872;SDS011;50750;51.636;4.948;2023-05-19T11:21:53;3.40;;;1.80;;
59872;SDS011;50750;51.636;4.948;2023-05-19T11:24:55;3.70;;;1.90;;
59872;SDS011;50750;51.636;4.948;2023-05-19T11:29:57;4.60;;;1.90;;
59872;SDS011;50750;51.636;4.948;2023-05-19T11:32:26;3.80;;;1.80;;
59872;SDS011;50750;51.636;4.948;2023-05-19T11:34:55;4.10;;;1.70;;
59872;SDS011;50750;51.636;4.948;2023-05-19T11:37:22;4.90;;;1.80;;
59872;SDS011;50750;51.636;4.948;2023-05-19T11:39:50;3.50;;;1.70;;
59872;SDS011;50750;51.636;4.948;2023-05-19T11:42:17;4.70;;;2.00;;
59872;SDS011;50750;51.636;4.948;2023-05-19T11:44:44;3.60;;;2.00;;
59872;SDS011;50750;51.636;4.948;2023-05-19T11:47:11;3.60;;;1.80;;
59872;SDS011;50750;51.636;4.948;2023-05-19T11:49:49;3.50;;;1.70;;
59872;SDS011;50750;51.636;4.948;2023-05-19T11:52:22;5.10;;;1.90;;
59872;SDS011;50750;51.636;4.948;2023-05-19T11:54:50;3.90;;;1.70;;
59872;SDS011;50750;51.636;4.948;2023-05-19T11:57:17;4.10;;;1.90;;
59872;SDS011;50750;51.636;4.948;2023-05-19T11:59:44;5.10;;;1.70;;
59872;SDS011;50750;51.636;4.948;2023-05-19T12:02:20;3.50;;;1.70;;
59872;SDS011;50750;51.636;4.948;2023-05-19T12:04:50;3.20;;;1.60;;
59872;SDS011;50750;51.636;4.948;2023-05-19T12:07:17;3.90;;;1.80;;
59872;SDS011;50750;51.636;4.948;2023-05-19T12:09:45;3.20;;;1.40;;
59872;SDS011;50750;51.636;4.948;2023-05-19T12:12:13;4.30;;;1.90;;
59872;SDS011;50750;51.636;4.948;2023-05-19T12:14:42;3.90;;;1.80;;
59872;SDS011;50750;51.636;4.948;2023-05-19T12:17:10;4.50;;;1.50;;
59872;SDS011;50750;51.636;4.948;2023-05-19T12:19:38;3.10;;;1.70;;
59872;SDS011;50750;51.636;4.948;2023-05-19T12:22:08;3.10;;;1.50;;
59872;SDS011;50750;51.636;4.948;2023-05-19T12:24:36;3.30;;;1.80;;
59872;SDS011;50750;51.636;4.948;2023-05-19T12:27:05;3.60;;;1.70;;
59872;SDS011;50750;51.636;4.948;2023-05-19T12:29:36;4.00;;;1.70;;
59872;SDS011;50750;51.636;4.948;2023-05-19T12:32:03;4.00;;;1.80;;
59872;SDS011;50750;51.636;4.948;2023-05-19T12:34:36;4.40;;;2.00;;
59872;SDS011;50750;51.636;4.948;2023-05-19T12:37:03;4.70;;;1.80;;
59872;SDS011;50750;51.636;4.948;2023-05-19T12:39:31;4.00;;;1.90;;
59872;SDS011;50750;51.636;4.948;2023-05-19T12:42:02;4.10;;;1.70;;
59872;SDS011;50750;51.636;4.948;2023-05-19T12:44:35;3.60;;;1.80;;
59872;SDS011;50750;51.636;4.948;2023-05-19T12:47:13;4.40;;;1.90;;
59872;SDS011;50750;51.636;4.948;2023-05-19T12:52:29;3.40;;;1.50;;
59872;SDS011;50750;51.636;4.948;2023-05-19T12:55:01;3.50;;;1.70;;
59872;SDS011;50750;51.636;4.948;2023-05-19T12:57:30;4.20;;;1.80;;
59872;SDS011;50750;51.636;4.948;2023-05-19T13:00:01;4.00;;;1.70;;
59872;SDS011;50750;51.636;4.948;2023-05-19T13:02:56;3.10;;;1.70;;
59872;SDS011;50750;51.636;4.948;2023-05-19T13:05:25;3.50;;;1.50;;
59872;SDS011;50750;51.636;4.948;2023-05-19T13:07:57;5.10;;;1.70;;
59872;SDS011;50750;51.636;4.948;2023-05-19T13:10:25;3.00;;;1.60;;
59872;SDS011;50750;51.636;4.948;2023-05-19T13:12:56;3.10;;;1.50;;
59872;SDS011;50750;51.636;4.948;2023-05-19T13:15:26;3.30;;;1.60;;
59872;SDS011;50750;51.636;4.948;2023-05-19T13:17:53;3.10;;;1.60;;
59872;SDS011;50750;51.636;4.948;2023-05-19T13:20:20;2.90;;;1.30;;
59872;SDS011;50750;51.636;4.948;2023-05-19T13:22:47;4.30;;;1.70;;
59872;SDS011;50750;51.636;4.948;2023-05-19T13:25:14;3.60;;;1.60;;
59872;SDS011;50750;51.636;4.948;2023-05-19T13:27:43;3.60;;;2.00;;
59872;SDS011;50750;51.636;4.948;2023-05-19T13:30:11;4.70;;;1.70;;
59872;SDS011;50750;51.636;4.948;2023-05-19T13:32:37;3.30;;;1.70;;
59872;SDS011;50750;51.636;4.948;2023-05-19T13:35:04;3.80;;;1.70;;
59872;SDS011;50750;51.636;4.948;2023-05-19T13:37:32;3.10;;;1.80;;
59872;SDS011;50750;51.636;4.948;2023-05-19T13:39:59;6.10;;;2.30;;
59872;SDS011;50750;51.636;4.948;2023-05-19T13:42:26;5.00;;;1.80;;
59872;SDS011;50750;51.636;4.948;2023-05-19T13:44:56;4.50;;;1.80;;
59872;SDS011;50750;51.636;4.948;2023-05-19T13:47:22;3.30;;;1.90;;
59872;SDS011;50750;51.636;4.948;2023-05-19T13:49:50;2.80;;;1.50;;
59872;SDS011;50750;51.636;4.948;2023-05-19T13:52:17;3.10;;;1.70;;
59872;SDS011;50750;51.636;4.948;2023-05-19T13:54:44;4.40;;;1.80;;
59872;SDS011;50750;51.636;4.948;2023-05-19T13:57:11;3.70;;;1.80;;
59872;SDS011;50750;51.636;4.948;2023-05-19T13:59:38;3.20;;;1.80;;
59872;SDS011;50750;51.636;4.948;2023-05-19T14:02:05;4.00;;;2.00;;
59872;SDS011;50750;51.636;4.948;2023-05-19T14:04:34;4.30;;;1.70;;
59872;SDS011;50750;51.636;4.948;2023-05-19T14:07:03;4.00;;;1.90;;
59872;SDS011;50750;51.636;4.948;2023-05-19T14:09:35;4.40;;;1.50;;
59872;SDS011;50750;51.636;4.948;2023-05-19T14:12:02;3.80;;;1.70;;
59872;SDS011;50750;51.636;4.948;2023-05-19T14:14:28;4.10;;;1.70;;
59872;SDS011;50750;51.636;4.948;2023-05-19T14:16:55;2.80;;;1.70;;
59872;SDS011;50750;51.636;4.948;2023-05-19T14:19:21;3.10;;;1.60;;
59872;SDS011;50750;51.636;4.948;2023-05-19T14:21:49;3.70;;;1.80;;
59872;SDS011;50750;51.636;4.948;2023-05-19T14:24:17;5.10;;;1.80;;
59872;SDS011;50750;51.636;4.948;2023-05-19T14:26:45;4.70;;;1.70;;
59872;SDS011;50750;51.636;4.948;2023-05-19T14:29:11;4.00;;;1.70;;
59872;SDS011;50750;51.636;4.948;2023-05-19T14:31:48;4.70;;;1.90;;
59872;SDS011;50750;51.636;4.948;2023-05-19T14:34:14;3.70;;;1.70;;
59872;SDS011;50750;51.636;4.948;2023-05-19T14:36:43;3.60;;;1.70;;
59872;SDS011;50750;51.636;4.948;2023-05-19T14:39:10;4.60;;;2.10;;
59872;SDS011;50750;51.636;4.948;2023-05-19T14:41:37;3.40;;;1.80;;
59872;SDS011;50750;51.636;4.948;2023-05-19T14:44:03;3.10;;;1.70;;
59872;SDS011;50750;51.636;4.948;2023-05-19T14:46:30;3.40;;;1.70;;
59872;SDS011;50750;51.636;4.948;2023-05-19T14:48:57;3.70;;;1.90;;
59872;SDS011;50750;51.636;4.948;2023-05-19T14:51:23;4.00;;;2.10;;
59872;SDS011;50750;51.636;4.948;2023-05-19T14:53:50;3.80;;;2.00;;
59872;SDS011;50750;51.636;4.948;2023-05-19T14:56:16;3.30;;;1.70;;
59872;SDS011;50750;51.636;4.948;2023-05-19T14:58:43;4.10;;;1.90;;
59872;SDS011;50750;51.636;4.948;2023-05-19T15:01:09;2.70;;;1.40;;
59872;SDS011;50750;51.636;4.948;2023-05-19T15:03:36;3.50;;;1.60;;
59872;SDS011;50750;51.636;4.948;2023-05-19T15:06:06;3.40;;;1.60;;
59872;SDS011;50750;51.636;4.948;2023-05-19T15:08:34;3.70;;;1.80;;
59872;SDS011;50750;51.636;4.948;2023-05-19T15:11:02;3.20;;;1.70;;
59872;SDS011;50750;51.636;4.948;2023-05-19T15:13:29;3.90;;;1.60;;
59872;SDS011;50750;51.636;4.948;2023-05-19T15:15:56;2.90;;;1.60;;
59872;SDS011;50750;51.636;4.948;2023-05-19T15:18:22;4.00;;;1.90;;
59872;SDS011;50750;51.636;4.948;2023-05-19T15:20:49;3.40;;;1.60;;